createdAt,value
2022-09-28T00:00:25.563Z,8.69
2022-09-28T00:02:57.531Z,8.70
2022-09-28T00:05:27.006Z,8.58
2022-09-28T00:07:55.850Z,8.37
2022-09-28T00:10:24.140Z,8.58
2022-09-28T00:12:55.512Z,8.33
2022-09-28T00:15:24.689Z,8.39
2022-09-28T00:17:52.507Z,8.37
2022-09-28T00:20:22.250Z,8.35
2022-09-28T00:22:50.119Z,8.45
2022-09-28T00:25:18.022Z,8.45
2022-09-28T00:30:36.354Z,8.35
2022-09-28T00:42:17.639Z,8.56
2022-09-28T00:50:58.696Z,8.64
2022-09-28T00:53:31.384Z,8.63
2022-09-28T00:56:05.470Z,8.67
2022-09-28T00:58:36.863Z,8.67
2022-09-28T01:03:48.644Z,8.54
2022-09-28T01:06:22.850Z,8.52
2022-09-28T01:09:08.600Z,8.56
2022-09-28T01:11:39.980Z,8.57
2022-09-28T01:14:17.806Z,8.53
2022-09-28T01:16:54.912Z,8.46
2022-09-28T01:20:19.394Z,8.43
2022-09-28T01:23:33.006Z,8.41
2022-09-28T01:26:26.183Z,8.57
2022-09-28T01:48:08.547Z,8.50
2022-09-28T01:50:41.889Z,8.48
2022-09-28T01:53:14.961Z,8.45
2022-09-28T01:55:49.041Z,8.59
2022-09-28T01:58:24.154Z,8.36
2022-09-28T02:00:57.539Z,8.45
2022-09-28T02:03:33.129Z,8.41
2022-09-28T02:06:10.007Z,8.42
2022-09-28T02:08:44.941Z,8.45
2022-09-28T05:07:49.257Z,9.12
2022-09-28T05:10:20.114Z,9.18
2022-09-28T05:12:50.627Z,9.17
2022-09-28T05:15:19.449Z,9.26
2022-09-28T05:17:51.945Z,9.24
2022-09-28T05:20:42.819Z,9.24
2022-09-28T05:23:39.945Z,9.22
2022-09-28T05:26:18.902Z,9.23
2022-09-28T05:32:02.092Z,9.43
2022-09-28T06:13:50.147Z,9.34
2022-09-28T08:55:56.660Z,10.77
2022-09-28T09:04:43.627Z,11.83
2022-09-28T09:07:52.314Z,12.24
2022-09-28T09:10:39.619Z,12.67
2022-09-28T09:13:33.553Z,12.86
2022-09-28T09:16:12.546Z,12.35
2022-09-28T09:19:17.842Z,12.20
2022-09-28T09:22:15.294Z,12.01
2022-09-28T09:24:50.583Z,12.87
2022-09-28T09:27:39.175Z,13.29
2022-09-28T09:30:11.975Z,13.91
2022-09-28T09:32:57.559Z,14.00
2022-09-28T09:35:46.011Z,13.30
2022-09-28T09:38:47.447Z,13.29
2022-09-28T09:41:47.133Z,12.60
2022-09-28T09:45:04.769Z,12.43
2022-09-28T09:48:04.317Z,12.69
2022-09-28T09:50:39.385Z,13.14
2022-09-28T09:53:17.861Z,13.67
2022-09-28T09:55:48.021Z,13.79
2022-09-28T09:58:39.590Z,13.49
2022-09-28T10:01:21.022Z,13.40
2022-09-28T10:04:22.135Z,13.15
2022-09-28T10:06:53.975Z,13.05
2022-09-28T10:09:25.822Z,12.89
2022-09-28T10:11:54.693Z,13.53
2022-09-28T10:14:24.472Z,14.02
2022-09-28T10:17:02.625Z,14.42
2022-09-28T10:19:50.693Z,14.46
2022-09-28T10:22:36.953Z,14.43
2022-09-28T10:25:13.616Z,14.64
2022-09-28T10:27:45.997Z,14.40
2022-09-28T10:30:18.850Z,14.00
2022-09-28T10:32:48.755Z,13.43
2022-09-28T10:35:28.263Z,13.69
2022-09-28T10:38:04.635Z,13.97
2022-09-28T10:40:55.379Z,13.70
2022-09-28T10:43:34.626Z,13.12
2022-09-28T10:46:10.194Z,13.24
2022-09-28T10:48:53.807Z,13.01
2022-09-28T10:51:45.131Z,12.82
2022-09-28T10:54:19.739Z,12.96
2022-09-28T10:56:52.047Z,13.01
2022-09-28T10:59:46.827Z,12.93
2022-09-28T11:02:37.515Z,12.82
2022-09-28T11:05:22.052Z,13.17
2022-09-28T11:07:52.707Z,13.10
2022-09-28T11:15:07.370Z,13.88
2022-09-28T11:17:38.763Z,14.36
2022-09-28T11:20:30.630Z,13.73
2022-09-28T11:23:18.930Z,13.33
2022-09-28T11:25:58.346Z,12.99
2022-09-28T11:28:32.680Z,13.23
2022-09-28T11:31:03.961Z,13.12
2022-09-28T11:33:37.639Z,12.95
2022-09-28T11:36:46.656Z,13.19
2022-09-28T11:39:27.627Z,14.04
2022-09-28T11:42:16.135Z,14.28
2022-09-28T11:44:47.867Z,14.47
2022-09-28T11:47:33.952Z,15.22
2022-09-28T11:50:07.607Z,14.70
2022-09-28T11:52:44.602Z,14.52
2022-09-28T11:55:23.546Z,14.47
2022-09-28T11:57:58.045Z,14.46
2022-09-28T12:00:26.202Z,14.25
2022-09-28T12:03:06.990Z,13.82
2022-09-28T12:05:38.446Z,13.87
2022-09-28T12:08:14.583Z,13.89
2022-09-28T12:11:07.491Z,13.25
2022-09-28T12:13:59.603Z,13.17
2022-09-28T12:17:00.926Z,13.27
2022-09-28T12:19:26.397Z,13.40
2022-09-28T12:21:59.283Z,13.66
2022-09-28T12:24:32.087Z,13.77
2022-09-28T12:27:06.224Z,14.15
2022-09-28T12:29:47.515Z,14.83
2022-09-28T12:32:25.117Z,14.55
2022-09-28T12:34:52.894Z,13.98
2022-09-28T12:37:34.070Z,13.65
2022-09-28T12:40:22.346Z,13.53
2022-09-28T12:43:05.307Z,13.25
2022-09-28T12:46:10.800Z,13.13
2022-09-28T12:50:13.720Z,13.23
2022-09-28T12:52:16.710Z,13.30
2022-09-28T12:55:01.236Z,13.51
2022-09-28T12:57:41.911Z,13.56
2022-09-28T13:00:12.515Z,13.39
2022-09-28T13:03:01.776Z,13.19
2022-09-28T13:05:56.834Z,13.14
2022-09-28T13:08:36.451Z,12.60
2022-09-28T13:11:15.727Z,11.95
2022-09-28T13:13:53.004Z,11.80
2022-09-28T13:16:31.088Z,11.35
2022-09-28T13:19:08.585Z,11.07
2022-09-28T13:24:45.216Z,11.01
2022-09-28T13:27:19.465Z,11.44
2022-09-28T13:33:52.554Z,12.69
2022-09-28T13:36:43.458Z,12.78
2022-09-28T13:39:36.451Z,13.14
2022-09-28T13:42:05.266Z,13.39
2022-09-28T13:44:54.251Z,13.40
2022-09-28T13:47:35.847Z,13.60
2022-09-28T13:50:22.180Z,13.62
2022-09-28T13:52:57.960Z,13.96
2022-09-28T13:55:34.001Z,13.90
2022-09-28T13:58:05.475Z,14.30
2022-09-28T14:00:39.688Z,14.51
2022-09-28T14:03:24.059Z,14.44
2022-09-28T14:06:22.969Z,14.53
2022-09-28T14:09:25.881Z,14.74
2022-09-28T14:11:59.793Z,14.28
2022-09-28T14:14:51.330Z,14.24
2022-09-28T14:17:55.541Z,14.66
2022-09-28T14:20:27.194Z,14.74
2022-09-28T14:23:29.760Z,14.49
2022-09-28T14:26:13.594Z,14.94
2022-09-28T14:28:49.939Z,14.50
2022-09-28T14:31:26.567Z,14.40
2022-09-28T14:33:57.852Z,13.85
2022-09-28T14:36:42.348Z,13.54
2022-09-28T14:39:45.940Z,13.58
2022-09-28T14:42:16.663Z,13.49
2022-09-28T14:45:18.012Z,13.45
2022-09-28T14:48:04.562Z,13.70
2022-09-28T14:50:32.425Z,13.68
2022-09-28T14:53:06.116Z,13.69
2022-09-28T14:55:43.931Z,13.62
2022-09-28T14:58:19.637Z,13.68
2022-09-28T15:00:49.135Z,13.33
2022-09-28T15:03:18.049Z,13.63
2022-09-28T15:05:48.244Z,13.30
2022-09-28T15:08:18.042Z,13.51
2022-09-28T15:10:49.052Z,13.88
2022-09-28T15:13:20.781Z,14.30
2022-09-28T15:15:52.429Z,14.35
2022-09-28T15:18:48.989Z,14.57
2022-09-28T15:21:16.908Z,14.62
2022-09-28T15:23:46.933Z,14.73
2022-09-28T15:26:27.413Z,14.96
2022-09-28T15:28:55.928Z,15.23
2022-09-28T15:31:26.309Z,15.09
2022-09-28T15:34:12.145Z,14.89
2022-09-28T15:36:41.742Z,15.06
2022-09-28T15:39:15.131Z,14.40
2022-09-28T15:41:46.963Z,14.71
2022-09-28T15:44:36.619Z,14.21
2022-09-28T15:47:13.894Z,14.77
2022-09-28T15:49:47.395Z,14.40
2022-09-28T15:52:27.761Z,14.35
2022-09-28T15:54:56.375Z,14.17
2022-09-28T15:57:35.893Z,14.32
2022-09-28T16:00:07.011Z,14.01
2022-09-28T16:02:39.852Z,13.51
2022-09-28T16:05:35.786Z,13.94
2022-09-28T16:08:06.342Z,13.63
2022-09-28T16:10:35.925Z,13.23
2022-09-28T16:13:17.121Z,13.19
2022-09-28T16:15:45.388Z,13.06
2022-09-28T16:18:20.693Z,12.81
2022-09-28T16:20:51.062Z,12.76
2022-09-28T16:23:22.851Z,12.52
2022-09-28T16:25:53.612Z,12.53
2022-09-28T16:28:51.676Z,12.47
2022-09-28T16:31:29.269Z,12.41
2022-09-28T16:33:59.583Z,12.45
2022-09-28T16:36:29.831Z,12.57
2022-09-28T16:38:57.712Z,12.50
2022-09-28T16:41:29.014Z,12.42
2022-09-28T16:44:01.331Z,12.54
2022-09-28T16:50:20.642Z,12.91
2022-09-28T16:53:07.915Z,12.52
2022-09-28T16:55:40.551Z,12.51
2022-09-28T16:58:09.337Z,12.30
2022-09-28T17:00:38.556Z,12.59
2022-09-28T17:03:14.466Z,12.80
2022-09-28T17:05:42.854Z,12.57
2022-09-28T17:08:15.693Z,12.60
2022-09-28T17:11:09.862Z,12.54
2022-09-28T17:13:36.307Z,12.69
2022-09-28T17:16:08.444Z,12.88
2022-09-28T17:18:37.830Z,12.94
2022-09-28T17:21:07.402Z,12.90
2022-09-28T17:23:35.274Z,12.83
2022-09-28T17:26:03.839Z,12.83
2022-09-28T17:28:34.391Z,12.72
2022-09-28T17:31:02.389Z,12.81
2022-09-28T17:33:31.519Z,12.54
2022-09-28T17:36:01.412Z,12.51
2022-09-28T17:38:29.426Z,12.45
2022-09-28T17:40:57.477Z,12.22
2022-09-28T17:43:25.300Z,12.23
2022-09-28T17:45:53.206Z,12.05
2022-09-28T17:48:22.920Z,11.92
2022-09-28T17:50:52.248Z,11.79
2022-09-28T17:53:20.049Z,11.55
2022-09-28T17:55:47.804Z,11.64
2022-09-28T17:58:17.814Z,11.41
2022-09-28T18:00:47.228Z,11.26
2022-09-28T18:03:16.852Z,10.99
2022-09-28T18:05:45.456Z,11.04
2022-09-28T18:08:18.455Z,10.95
2022-09-28T18:10:46.930Z,10.82
2022-09-28T18:13:14.786Z,10.76
2022-09-28T18:15:43.130Z,10.77
2022-09-28T18:18:12.869Z,10.58
2022-09-28T18:20:42.115Z,10.43
2022-09-28T18:23:10.009Z,10.55
2022-09-28T18:25:43.042Z,10.18
2022-09-28T18:28:29.537Z,10.20
2022-09-28T18:30:57.668Z,10.08
2022-09-28T18:33:25.591Z,10.25
2022-09-28T18:35:54.726Z,10.08
2022-09-28T18:38:22.619Z,10.29
2022-09-28T18:40:53.419Z,10.25
2022-09-28T18:43:21.592Z,10.12
2022-09-28T18:45:49.722Z,10.14
2022-09-28T18:48:17.580Z,10.01
2022-09-28T18:50:45.621Z,10.01
2022-09-28T18:53:13.450Z,9.95
2022-09-28T18:55:42.171Z,10.00
2022-09-28T18:58:12.931Z,9.74
2022-09-28T19:00:42.194Z,9.56
2022-09-28T19:03:14.344Z,9.74
2022-09-28T19:05:43.113Z,9.62
2022-09-28T19:08:11.168Z,9.54
2022-09-28T19:10:38.988Z,9.61
2022-09-28T19:13:06.835Z,9.41
2022-09-28T19:15:36.182Z,8.63
2022-09-28T19:18:04.285Z,8.78
2022-09-28T19:20:33.770Z,9.12
2022-09-28T19:23:02.092Z,9.17
2022-09-28T19:25:30.148Z,9.29
2022-09-28T19:27:57.937Z,9.33
2022-09-28T19:30:25.840Z,9.21
2022-09-28T19:32:55.100Z,9.40
2022-09-28T19:35:22.965Z,9.33
2022-09-28T19:37:51.462Z,9.52
2022-09-28T19:40:19.364Z,9.36
2022-09-28T19:42:47.243Z,9.41
2022-09-28T19:45:15.126Z,9.55
2022-09-28T19:47:43.013Z,9.68
2022-09-28T19:50:12.363Z,9.40
2022-09-28T19:52:40.185Z,9.37
2022-09-28T19:55:09.010Z,9.53
2022-09-28T19:57:36.854Z,9.28
2022-09-28T20:00:05.274Z,9.65
2022-09-28T20:02:34.357Z,9.67
2022-09-28T20:05:02.315Z,9.60
2022-09-28T20:07:33.382Z,9.57
2022-09-28T20:10:01.421Z,9.40
2022-09-28T20:12:29.211Z,9.62
2022-09-28T20:14:57.055Z,9.18
2022-09-28T20:17:26.104Z,9.34
2022-09-28T20:19:53.916Z,9.06
2022-09-28T20:22:21.809Z,9.45
2022-09-28T20:24:51.007Z,9.34
2022-09-28T20:27:19.734Z,8.93
2022-09-28T20:29:49.867Z,9.28
2022-09-28T20:32:17.683Z,9.22
2022-09-28T20:34:45.535Z,9.11
2022-09-28T20:37:14.042Z,8.96
2022-09-28T20:39:44.945Z,9.22
2022-09-28T20:42:15.533Z,9.31
2022-09-28T20:44:43.904Z,9.44
2022-09-28T20:47:12.072Z,9.27
2022-09-28T20:49:39.945Z,9.56
2022-09-28T20:52:07.810Z,9.46
2022-09-28T20:54:35.647Z,9.29
2022-09-28T20:57:17.199Z,9.35
2022-09-28T20:59:50.861Z,9.37
2022-09-28T21:02:21.795Z,9.32
2022-09-28T21:04:49.684Z,8.92
2022-09-28T21:07:17.549Z,8.76
2022-09-28T21:09:45.595Z,8.95
2022-09-28T21:12:15.357Z,9.27
2022-09-28T21:14:43.139Z,9.24
2022-09-28T21:17:12.371Z,9.05
2022-09-28T21:19:40.275Z,9.00
2022-09-28T21:22:08.266Z,9.02
2022-09-28T21:24:36.940Z,8.87
2022-09-28T21:27:05.005Z,9.24
2022-09-28T21:29:33.429Z,9.23
2022-09-28T21:32:01.985Z,9.35
2022-09-28T21:34:31.190Z,9.20
2022-09-28T21:36:58.987Z,9.20
2022-09-28T21:39:27.763Z,9.15
2022-09-28T21:41:55.638Z,8.89
2022-09-28T21:44:23.444Z,9.08
2022-09-28T21:46:51.215Z,8.66
2022-09-28T21:49:19.559Z,8.65
2022-09-28T21:51:48.767Z,8.74
2022-09-28T21:54:16.654Z,8.99
2022-09-28T21:56:44.671Z,8.86
2022-09-28T21:59:12.525Z,8.72
2022-09-28T22:01:42.672Z,8.67
2022-09-28T22:04:11.716Z,8.71
2022-09-28T22:06:39.779Z,8.62
2022-09-28T22:09:09.209Z,8.23
2022-09-28T22:11:37.973Z,8.12
2022-09-28T22:14:05.783Z,8.13
2022-09-28T22:16:33.641Z,8.04
2022-09-28T22:19:01.580Z,7.93
2022-09-28T22:21:31.860Z,7.92
2022-09-28T22:24:01.874Z,7.79
2022-09-28T22:26:33.603Z,7.72
2022-09-28T22:29:03.445Z,8.22
2022-09-28T22:31:32.941Z,8.13
2022-09-28T22:34:01.264Z,7.53
2022-09-28T22:36:29.850Z,7.30
2022-09-28T22:38:59.302Z,7.50
2022-09-28T22:41:28.324Z,7.78
2022-09-28T22:43:57.703Z,8.07
2022-09-28T22:46:27.892Z,7.97
2022-09-28T22:48:57.499Z,7.82
2022-09-28T22:51:27.077Z,7.99
2022-09-28T22:53:56.516Z,8.27
2022-09-28T22:56:24.614Z,8.20
2022-09-28T22:58:52.464Z,8.25
2022-09-28T23:01:23.622Z,8.25
2022-09-28T23:03:53.342Z,8.02
2022-09-28T23:06:23.831Z,8.17
2022-09-28T23:08:52.412Z,8.50
2022-09-28T23:11:20.722Z,8.33
2022-09-28T23:13:52.523Z,7.76
2022-09-28T23:16:23.546Z,8.00
2022-09-28T23:18:51.580Z,7.96
2022-09-28T23:21:21.112Z,7.89
2022-09-28T23:23:53.490Z,7.88
2022-09-28T23:26:22.920Z,8.15
2022-09-28T23:28:51.092Z,7.82
2022-09-28T23:31:23.109Z,7.90
2022-09-28T23:33:52.208Z,8.15
2022-09-28T23:36:20.180Z,8.14
2022-09-28T23:38:48.025Z,8.14
2022-09-28T23:41:15.861Z,8.02
2022-09-28T23:43:43.705Z,7.78
2022-09-28T23:46:12.004Z,7.98
2022-09-28T23:48:41.258Z,7.87
2022-09-28T23:51:09.154Z,8.07
2022-09-28T23:53:36.947Z,7.91
2022-09-28T23:56:04.826Z,7.86
2022-09-28T23:58:32.791Z,7.90
